Flight Track Log - Related Links

Times and Time Zones

All times are in EDT time to prevent confusion due to time zone crossing. See the N618JB flight status page for this flight to view local times or setup timezone preferences in your user account.

Time Position Orientation Groundspeed Altitude Reporting Facility
EDT Latitude Longitude Course Direction KTS MPH feet Rate Location/Type
Thu 03:24:40 AM 18.5333 -67.1000 309° West 220 253 2,400  Level San Juan Center
Thu 03:25:41 AM 18.5667 -67.1833 293° West 290 334 5,400 2,876 Climbing San Juan Center
Thu 03:26:00 AM 18.6645 -67.3341 311° West  Level FlightAware Approximate
Thu 03:26:41 AM 18.6000 -67.2667 293° West 280 322 8,200  Level San Juan Center
Thu 03:27:00 AM 18.7328 -67.4160 311° West  Level FlightAware Approximate
Thu 03:27:41 AM 18.6500 -67.3333 308° West 300 345 10,700  Level San Juan Center
Thu 03:28:00 AM 18.7924 -67.5052 305° West  Level FlightAware Approximate
Thu 03:28:42 AM 18.7167 -67.4000 317° Northwest 370 426 11,800  Level San Juan Center
Thu 03:29:00 AM 18.8559 -67.5908 309° West  Level FlightAware Approximate
Thu 03:29:42 AM 18.7833 -67.5000 305° West 380 437 14,300  Level San Juan Center
Thu 03:30:00 AM 18.9143 -67.6658 309° West  Level FlightAware Approximate
Thu 03:30:42 AM 18.8500 -67.5833 310° West 400 460 16,200  Level San Juan Center
Thu 03:31:43 AM 18.9167 -67.6833 305° West 410 472 18,200 1,983 Climbing San Juan Center
Thu 03:32:43 AM 18.9833 -67.7667 310° West 400 460 20,200 1,700 Climbing San Juan Center
Thu 03:33:43 AM 19.0667 -67.8667 311° West 410 472 21,600 1,438 Climbing San Juan Center
Thu 03:34:44 AM 19.1333 -67.9667 305° West 410 472 23,100 1,537 Climbing San Juan Center
Thu 03:35:44 AM 19.2000 -68.0667 305° West 420 483 24,700 1,550 Climbing San Juan Center
Thu 03:36:44 AM 19.2833 -68.1500 317° Northwest 420 483 26,200 1,339 Climbing San Juan Center
Thu 03:37:45 AM 19.3500 -68.2500 305° West 420 483 27,400 1,140 Climbing San Juan Center
Thu 03:38:45 AM 19.4333 -68.3500 311° West 430 495 28,500 1,450 Climbing San Juan Center
Thu 03:39:45 AM 19.5000 -68.4500 305° West 420 483 30,300 1,642 Climbing San Juan Center
Thu 03:41:55 AM 19.6431 -68.6661 305° West 405 466 33,700 1,156 Climbing Miami Center
Thu 03:42:57 AM 19.7119 -68.7519 310° West 392 451 34,000 149 Climbing Miami Center
Thu 03:43:56 AM 19.7750 -68.8450 306° West 387 445 34,000  Level Miami Center
Thu 03:44:55 AM 19.8439 -68.9314 310° West 387 445 34,000  Level Miami Center
Thu 03:45:58 AM 19.9086 -69.0200 308° West 387 445 34,000  Level Miami Center
Thu 03:46:55 AM 19.9756 -69.1108 308° West 387 445 34,000  Level Miami Center
Thu 03:47:56 AM 20.0425 -69.1997 309° West 387 445 34,000  Level Miami Center
Thu 03:48:55 AM 20.1092 -69.2864 309° West 387 445 34,000  Level Miami Center
Thu 03:49:55 AM 20.1758 -69.3775 308° West 387 445 34,000  Level Miami Center
Thu 03:50:55 AM 20.2428 -69.4667 309° West 387 445 34,000  Level Miami Center
Thu 03:51:55 AM 20.3072 -69.5536 308° West 387 445 34,000  Level Miami Center
Thu 03:52:55 AM 20.3717 -69.6431 308° West 387 445 34,000  Level Miami Center
Thu 03:53:56 AM 20.4383 -69.7322 309° West 387 445 34,000  Level Miami Center
Thu 03:54:55 AM 20.5028 -69.8219 307° West 387 445 34,000  Level Miami Center
Thu 03:55:56 AM 20.5694 -69.9114 309° West 387 445 34,000  Level Miami Center
Thu 03:56:55 AM 20.6358 -70.0008 308° West 382 440 34,000  Level Miami Center
Thu 03:57:58 AM 20.7000 -70.0886 308° West 382 440 34,000  Level Miami Center
Thu 03:58:55 AM 20.7664 -70.1783 308° West 382 440 34,000  Level Miami Center
Thu 03:59:55 AM 20.8328 -70.2681 308° West 382 440 34,000  Level Miami Center
Thu 04:00:55 AM 20.8994 -70.3603 308° West 382 440 34,000  Level Miami Center
Thu 04:01:56 AM 20.9633 -70.4481 308° West 382 440 34,000  Level Miami Center
Thu 04:02:55 AM 21.0297 -70.5383 308° West 382 440 34,000  Level Miami Center
Thu 04:03:55 AM 21.0936 -70.6264 308° West 382 440 34,000  Level Miami Center
Thu 04:04:56 AM 21.1600 -70.7167 308° West 382 440 34,000  Level Miami Center
Thu 04:05:56 AM 21.2258 -70.8047 309° West 382 440 34,000  Level Miami Center
Thu 04:06:57 AM 21.2919 -70.8953 308° West 382 440 34,000  Level Miami Center
Thu 04:07:57 AM 21.3558 -70.9839 308° West 382 440 34,000  Level Miami Center
Thu 04:08:55 AM 21.4264 -71.0808 308° West 377 434 34,000  Level Miami Center
Thu 04:09:58 AM 21.4925 -71.1739 307° West 377 434 34,000  Level Miami Center
Thu 04:10:55 AM 21.5650 -71.2733 308° West 460 529 34,000  Level Miami Center
Thu 04:11:55 AM 21.6244 -71.3625 306° West 421 484 34,000  Level Miami Center
Thu 04:12:55 AM 21.6903 -71.4511 309° West 399 459 34,000  Level Miami Center
Thu 04:13:58 AM 21.7558 -71.5422 308° West 388 447 34,000  Level Miami Center
Thu 04:14:55 AM 21.8197 -71.6336 307° West 383 441 34,000  Level Miami Center
Thu 04:15:55 AM 21.8853 -71.7247 308° West 383 441 34,000  Level Miami Center
Thu 04:16:55 AM 21.9489 -71.8186 306° West 383 441 34,000  Level Miami Center
Thu 04:17:57 AM 22.0144 -71.9056 309° West 383 441 34,000  Level Miami Center
Thu 04:18:55 AM 22.0781 -71.9994 306° West 383 441 34,000  Level Miami Center
Thu 04:19:55 AM 22.1414 -72.0892 307° West 378 435 34,000  Level Miami Center
Thu 04:20:55 AM 22.2069 -72.1831 307° West 378 435 34,000 98 Level Miami Center
Thu 04:21:57 AM 22.2722 -72.2750 308° West 378 435 34,200 843 Climbing Miami Center
Thu 04:22:56 AM 22.3269 -72.3539 307° West 378 435 35,700 893 Climbing Miami Center
Thu 04:23:58 AM 22.3878 -72.4369 308° West 373 429 36,000 151 Climbing Miami Center
Thu 04:24:55 AM 22.4467 -72.5225 307° West 367 422 36,000  Level Miami Center
Thu 04:25:55 AM 22.5053 -72.6083 306° West 362 417 36,000  Level Miami Center
Thu 04:26:57 AM 22.5642 -72.6939 307° West 357 411 36,000  Level Miami Center
Thu 04:27:57 AM 22.6250 -72.7797 308° West 357 411 36,000  Level Miami Center
Thu 04:28:55 AM 22.6856 -72.8656 307° West 352 405 36,000  Level Miami Center
Thu 04:29:58 AM 22.7464 -72.9517 307° West 357 411 36,000  Level Miami Center
Thu 04:30:56 AM 22.8008 -73.0422 303° West 357 411 36,000  Level Miami Center
Thu 04:31:56 AM 22.8656 -73.1261 310° West 357 411 36,000  Level Miami Center
Thu 04:32:55 AM 22.9200 -73.2144 304° West 352 405 36,000  Level Miami Center
Thu 04:33:55 AM 22.9764 -73.3031 305° West 352 405 36,000  Level Miami Center
Thu 04:34:57 AM 23.0475 -73.3961 310° West 357 411 36,000  Level Miami Center
Thu 04:35:55 AM 23.1039 -73.4825 305° West 357 411 36,000  Level Miami Center
Thu 04:36:58 AM 23.1664 -73.5711 308° West 362 417 36,000  Level Miami Center
Thu 04:37:58 AM 23.2289 -73.6578 308° West 367 422 36,000  Level Miami Center
Thu 04:38:55 AM 23.2892 -73.7444 307° West 367 422 36,000  Level Miami Center
Thu 04:39:56 AM 23.3472 -73.8314 306° West 367 422 36,000  Level Miami Center
Thu 04:40:55 AM 23.4056 -73.9181 306° West 367 422 36,000  Level Miami Center
Thu 04:41:57 AM 23.4678 -74.0050 308° West 362 417 36,000  Level Miami Center
Thu 04:42:57 AM 23.5258 -74.0922 306° West 357 411 36,000  Level Miami Center
Thu 04:43:57 AM 23.5839 -74.1792 306° West 350 403 36,000  Level Miami Center
Thu 04:44:58 AM 23.6439 -74.2686 306° West 355 409 36,000  Level Miami Center
Thu 04:45:56 AM 23.7017 -74.3558 306° West 355 409 36,000  Level Miami Center
Thu 04:46:55 AM 23.7639 -74.4433 308° West 355 409 36,000  Level Miami Center
Thu 04:47:55 AM 23.8217 -74.5331 305° West 360 414 36,000  Level Miami Center
Thu 04:48:55 AM 23.8836 -74.6228 307° West 360 414 36,000  Level Miami Center
Thu 04:49:55 AM 23.9433 -74.7103 307° West 360 414 36,000  Level Miami Center
Thu 04:50:56 AM 24.0031 -74.8003 306° West 360 414 36,000  Level Miami Center
Thu 04:51:55 AM 24.0608 -74.8881 306° West 360 414 36,000  Level Miami Center
Thu 04:52:55 AM 24.1206 -74.9761 307° West 355 409 36,000  Level Miami Center
Thu 04:53:55 AM 24.1800 -75.0661 306° West 355 409 36,000  Level Miami Center
Thu 04:54:57 AM 24.2417 -75.1564 307° West 360 414 36,000  Level Miami Center
Thu 04:55:57 AM 24.3014 -75.2469 306° West 365 420 36,000  Level Miami Center
Thu 04:56:57 AM 24.3586 -75.3394 304° West 365 420 36,000  Level Miami Center
Thu 04:57:57 AM 24.4181 -75.4278 306° West 370 426 36,000  Level Miami Center
Thu 04:58:57 AM 24.4794 -75.5183 307° West 370 426 36,000  Level Miami Center
Thu 04:59:57 AM 24.5389 -75.6114 305° West 375 432 36,000  Level Miami Center
Thu 05:00:56 AM 24.5981 -75.7000 306° West 375 432 36,000  Level Miami Center
Thu 05:01:58 AM 24.6572 -75.7933 305° West 375 432 36,000  Level Miami Center
Thu 05:02:56 AM 24.7164 -75.8819 306° West 375 432 36,000  Level Miami Center
Thu 05:03:56 AM 24.7775 -75.9731 306° West 380 437 36,000  Level Miami Center
Thu 05:04:56 AM 24.8386 -76.0619 307° West 375 432 36,000  Level Miami Center
Thu 05:05:56 AM 24.8956 -76.1531 305° West 375 432 36,000  Level Miami Center
Thu 05:06:56 AM 24.9544 -76.2444 305° West 375 432 36,000  Level Miami Center
Thu 05:07:57 AM 25.0114 -76.3358 305° West 375 432 36,000  Level Miami Center
Thu 05:08:57 AM 25.0597 -76.4114 305° West 375 432 36,000  Level Miami Center
Thu 05:09:55 AM 25.1228 -76.5100 305° West 375 432 36,000  Level Miami Center
Thu 05:10:56 AM 25.1833 -76.6017 306° West 375 432 36,000  Level Miami Center
Thu 05:11:57 AM 25.2442 -76.6911 307° West 375 432 36,000  Level Miami Center
Thu 05:12:55 AM 25.3028 -76.7828 305° West 375 432 36,000  Level Miami Center
Thu 05:13:56 AM 25.3614 -76.8750 305° West 375 432 36,000  Level Miami Center
Thu 05:14:56 AM 25.4219 -76.9692 305° West 375 432 36,000  Level Miami Center
Thu 05:15:56 AM 25.4803 -77.0636 304° West 375 432 36,000  Level Miami Center
Thu 05:16:57 AM 25.5408 -77.1581 305° West 375 432 36,000  Level Miami Center
Thu 05:17:58 AM 25.5992 -77.2506 305° West 375 432 36,000  Level Miami Center
Thu 05:18:56 AM 25.6594 -77.3453 305° West 380 437 36,000  Level Miami Center
Thu 05:19:55 AM 25.7175 -77.4378 305° West 380 437 36,000  Level Miami Center
Thu 05:20:57 AM 25.7819 -77.5419 305° West 380 437 36,000  Level Miami Center
Thu 05:21:56 AM 25.8419 -77.6344 306° West 380 437 36,000  Level Miami Center
Thu 05:22:58 AM 25.9022 -77.7297 305° West 380 437 36,000  Level Miami Center
Thu 05:23:56 AM 25.9581 -77.8272 303° West 375 432 36,000  Level Miami Center
Thu 05:24:56 AM 26.0178 -77.9200 306° West 375 432 36,000  Level Miami Center
Thu 05:25:57 AM 26.0758 -78.0108 305° West 375 432 36,000  Level Miami Center
Thu 05:26:58 AM 26.1356 -78.1086 304° West 381 438 36,000  Level Miami Center
Thu 05:27:58 AM 26.1931 -78.2042 304° West 381 438 36,000  Level Miami Center
Thu 05:28:55 AM 26.2508 -78.2997 304° West 374 430 36,000  Level Miami Center
Thu 05:29:55 AM 26.3125 -78.3933 306° West 379 436 36,000  Level Miami Center
Thu 05:30:56 AM 26.3700 -78.4892 304° West 379 436 36,000  Level Miami Center
Thu 05:31:56 AM 26.4275 -78.5828 304° West 379 436 36,000  Level Miami Center
Thu 05:32:58 AM 26.4911 -78.6764 307° West 379 436 36,000  Level Miami Center
Thu 05:33:55 AM 26.5525 -78.7728 305° West 374 430 36,000 -51 Level Miami Center
Thu 05:34:55 AM 26.6075 -78.8667 303° West 374 430 35,900  Descending Miami Center
Thu 05:35:56 AM 26.6669 -78.9628 305° West 381 438 36,000 50 Climbing Miami Center
Thu 05:36:56 AM 26.7239 -79.0592 303° West 381 438 36,000  Level Miami Center
Thu 05:37:57 AM 26.7808 -79.1558 303° West 376 433 36,000  Level Miami Center
Thu 05:38:56 AM 26.8419 -79.2525 305° West 376 433 36,000  Level Miami Center
Thu 05:39:57 AM 26.8947 -79.3467 302° West 370 426 36,000  Level Miami Center
Thu 05:40:55 AM 26.9556 -79.4433 305° West 375 432 36,000  Level Miami Center
Thu 05:41:55 AM 27.0083 -79.5286 305° West 369 425 36,000  Level Miami Center
Thu 05:42:58 AM 27.0650 -79.6278 303° West 380 437 36,000  Level Miami Center
Thu 05:43:57 AM 27.1297 -79.7344 304° West 380 437 36,000  Level Miami Center
Thu 05:44:55 AM 27.1906 -79.8317 305° West 375 432 36,000 -101 Level Miami Center
Thu 05:45:56 AM 27.2408 -79.9217 302° West 381 438 35,800 -541 Descending Miami Center
Thu 05:46:57 AM 27.2992 -80.0214 303° West 381 438 34,900 -942 Descending Miami Center
Thu 05:47:57 AM 27.3597 -80.1214 304° West 381 438 33,900 -1,000 Descending Miami Center
Thu 05:48:57 AM 27.4219 -80.2236 304° West 386 444 32,900 -1,800 Descending Miami Center
Thu 05:49:57 AM 27.4842 -80.3308 303° West 398 458 30,300 -2,950 Descending Miami Center
Thu 05:50:57 AM 27.5503 -80.4428 304° West 411 473 27,000 -3,203 Descending Miami Center
Thu 05:51:55 AM 27.6164 -80.5550 304° West 427 491 24,000 -3,139 Descending Miami Center
Thu 05:53:28 AM 27.7333 -80.7500 304° West 429 494 19,100 -2,863 Descending Orlando TRACON
Thu 05:54:28 AM 27.7833 -80.8500 299° West 418 481 16,700 -2,579 Descending Orlando TRACON
Thu 05:55:22 AM 27.8500 -80.9333 312° West 403 464 14,200 -2,550 Descending Orlando TRACON
Thu 05:56:28 AM 27.9167 -81.0500 303° West 386 444 11,600 -1,476 Descending Orlando TRACON
Thu 05:57:28 AM 27.9833 -81.1333 312° West 354 407 11,100 -250 Descending Orlando TRACON
Thu 05:58:28 AM 28.0833 -81.1667 344° North 345 397 11,100 -650 Level Orlando TRACON
Thu 05:59:28 AM 28.1667 -81.1833 350° North 303 349 9,800 -1,050 Descending Orlando TRACON
Thu 06:00:28 AM 28.2500 -81.1833 360° North 300 345 9,000 -1,050 Descending Orlando TRACON
Thu 06:01:28 AM 28.3333 -81.1833 360° North 296 341 7,700 -1,450 Descending Orlando TRACON
Thu 06:02:28 AM 28.4167 -81.1833 360° North 287 330 6,100 -2,050 Descending Orlando TRACON
Thu 06:03:28 AM 28.4833 -81.1833 360° North 286 329 3,600 -1,500 Descending Orlando TRACON
Thu 06:04:28 AM 28.5667 -81.1833 360° North 273 314 3,100 -250 Descending Orlando TRACON
Thu 06:05:28 AM 28.6000 -81.2500 300° West 236 272 3,100 -100 Level Orlando TRACON
Thu 06:06:28 AM 28.6000 -81.3167 270° West 206 237 2,900 -350 Descending Orlando TRACON
Thu 06:07:28 AM 28.5500 -81.3333 196° South 163 188 2,400 -762 Descending Orlando TRACON
Thu 06:08:34 AM 28.5000 -81.3333 180° South 141 162 1,300 -900 Descending Orlando TRACON
Thu 06:09:28 AM 28.4667 -81.3333 180° South 130 150 600 -778 Descending Orlando TRACON

Login

Don't have an account? Register now (free) for customized features, flight alerts, and more!